THY9VG LTFM-LTAC
Flight info
| Callsign | THY9VG |
|---|---|
| Flight time | 0h 39m |
| Altitude | 27000 |
| Route | VICEN1E/36 VICEN T380 ASMAP L333 LATGA |
| Aircraft | B77W/H-SDE1E2E3FGHIJ2J3J4J5M1RWXY/LB1D1 |
Departure
| Time | 2026-05-05 17:39 |
|---|---|
| Airport | İstanbul Airport (LTFM) |
Arrival
| Time | 2026-05-05 18:19 |
|---|---|
| Airport | Esenboğa International Airport (LTAC) |
| Time | Latitude | Longitude | Altitude | Speed | Heading |
|---|---|---|---|---|---|
| 2026-05-05 15:56 | 41.27492 | 28.74678 | 334 ft | 0 kts | 359° |
| 2026-05-05 17:26 | 41.27484 | 28.74678 | 334 ft | 4 kts | 359° |
| 2026-05-05 17:27 | 41.27457 | 28.74679 | 335 ft | 4 kts | 359° |
| 2026-05-05 17:27 | 41.27436 | 28.74680 | 334 ft | 4 kts | 2° |
| 2026-05-05 17:27 | 41.27415 | 28.74672 | 334 ft | 4 kts | 68° |
| 2026-05-05 17:27 | 41.27412 | 28.74640 | 334 ft | 4 kts | 89° |
| 2026-05-05 17:28 | 41.27412 | 28.74615 | 333 ft | 0 kts | 89° |
| 2026-05-05 17:30 | 41.27412 | 28.74632 | 334 ft | 6 kts | 89° |
| 2026-05-05 17:30 | 41.27414 | 28.74746 | 338 ft | 18 kts | 89° |
| 2026-05-05 17:31 | 41.27416 | 28.74924 | 335 ft | 20 kts | 89° |
| 2026-05-05 17:31 | 41.27419 | 28.75108 | 335 ft | 21 kts | 89° |
| 2026-05-05 17:31 | 41.27423 | 28.75292 | 336 ft | 11 kts | 89° |
| 2026-05-05 17:31 | 41.27422 | 28.75317 | 335 ft | 0 kts | 92° |
| 2026-05-05 17:33 | 41.27421 | 28.75324 | 335 ft | 4 kts | 106° |
| 2026-05-05 17:33 | 41.27363 | 28.75367 | 338 ft | 16 kts | 171° |
| 2026-05-05 17:33 | 41.27218 | 28.75370 | 335 ft | 21 kts | 179° |
| 2026-05-05 17:34 | 41.27072 | 28.75372 | 337 ft | 21 kts | 179° |
| 2026-05-05 17:34 | 41.26924 | 28.75376 | 334 ft | 21 kts | 179° |
| 2026-05-05 17:34 | 41.26777 | 28.75379 | 337 ft | 21 kts | 179° |
| 2026-05-05 17:34 | 41.26632 | 28.75382 | 335 ft | 20 kts | 179° |
| 2026-05-05 17:35 | 41.26505 | 28.75385 | 335 ft | 15 kts | 179° |
| 2026-05-05 17:35 | 41.26426 | 28.75450 | 335 ft | 15 kts | 102° |
| 2026-05-05 17:35 | 41.26425 | 28.75512 | 335 ft | 0 kts | 89° |
| 2026-05-05 17:36 | 41.26425 | 28.75513 | 335 ft | 1 kts | 89° |
| 2026-05-05 17:37 | 41.26425 | 28.75542 | 335 ft | 4 kts | 89° |
| 2026-05-05 17:37 | 41.26428 | 28.75615 | 335 ft | 13 kts | 79° |
| 2026-05-05 17:37 | 41.26504 | 28.75659 | 335 ft | 13 kts | 1° |
| 2026-05-05 17:37 | 41.26509 | 28.75659 | 335 ft | 0 kts | 0° |
| 2026-05-05 17:38 | 41.26510 | 28.75659 | 335 ft | 1 kts | 0° |
| 2026-05-05 17:38 | 41.26643 | 28.75660 | 336 ft | 55 kts | 360° |
| 2026-05-05 17:38 | 41.27315 | 28.75645 | 337 ft | 136 kts | 359° |
| 2026-05-05 17:39 | 41.28448 | 28.75641 | 523 ft | 178 kts | 1° |
| 2026-05-05 17:39 | 41.29722 | 28.75732 | 1200 ft | 188 kts | 14° |
| 2026-05-05 17:39 | 41.30782 | 28.76675 | 2051 ft | 188 kts | 54° |
| 2026-05-05 17:39 | 41.31581 | 28.78053 | 2742 ft | 192 kts | 32° |
| 2026-05-05 17:40 | 41.32816 | 28.78744 | 3359 ft | 196 kts | 20° |
| 2026-05-05 17:40 | 41.34099 | 28.79538 | 3977 ft | 211 kts | 25° |
| 2026-05-05 17:40 | 41.35293 | 28.80708 | 4533 ft | 228 kts | 51° |
| 2026-05-05 17:40 | 41.35791 | 28.82785 | 5151 ft | 251 kts | 85° |
| 2026-05-05 17:41 | 41.35363 | 28.85107 | 5749 ft | 268 kts | 110° |
| 2026-05-05 17:41 | 41.34536 | 28.87419 | 6275 ft | 283 kts | 112° |
| 2026-05-05 17:41 | 41.33643 | 28.89775 | 6816 ft | 287 kts | 113° |
| 2026-05-05 17:41 | 41.32730 | 28.92141 | 7298 ft | 287 kts | 113° |
| 2026-05-05 17:42 | 41.31815 | 28.94507 | 7793 ft | 288 kts | 113° |
| 2026-05-05 17:42 | 41.30900 | 28.96881 | 8286 ft | 290 kts | 112° |
| 2026-05-05 17:42 | 41.29979 | 28.99282 | 8756 ft | 293 kts | 112° |
| 2026-05-05 17:42 | 41.29051 | 29.01709 | 9233 ft | 295 kts | 112° |
| 2026-05-05 17:43 | 41.28118 | 29.04157 | 9702 ft | 298 kts | 112° |
| 2026-05-05 17:43 | 41.27174 | 29.06641 | 10193 ft | 307 kts | 112° |
| 2026-05-05 17:43 | 41.26192 | 29.09232 | 10672 ft | 320 kts | 112° |
| 2026-05-05 17:43 | 41.25169 | 29.11929 | 11194 ft | 332 kts | 112° |
| 2026-05-05 17:44 | 41.24127 | 29.14673 | 11715 ft | 342 kts | 113° |
| 2026-05-05 17:44 | 41.23024 | 29.17575 | 12257 ft | 352 kts | 113° |
| 2026-05-05 17:44 | 41.21924 | 29.20465 | 12786 ft | 359 kts | 113° |
| 2026-05-05 17:44 | 41.20789 | 29.23442 | 13310 ft | 362 kts | 113° |
| 2026-05-05 17:45 | 41.19648 | 29.26430 | 13894 ft | 363 kts | 113° |
| 2026-05-05 17:45 | 41.18499 | 29.29430 | 14418 ft | 364 kts | 113° |
| 2026-05-05 17:45 | 41.17345 | 29.32448 | 14913 ft | 369 kts | 114° |
| 2026-05-05 17:45 | 41.16177 | 29.35505 | 15425 ft | 375 kts | 115° |
| 2026-05-05 17:46 | 41.14989 | 29.38609 | 15934 ft | 379 kts | 115° |
| 2026-05-05 17:46 | 41.13786 | 29.41747 | 16442 ft | 383 kts | 115° |
| 2026-05-05 17:46 | 41.12571 | 29.44915 | 16959 ft | 386 kts | 115° |
| 2026-05-05 17:46 | 41.11350 | 29.48093 | 17517 ft | 388 kts | 115° |
| 2026-05-05 17:47 | 41.10121 | 29.51290 | 18107 ft | 389 kts | 115° |
| 2026-05-05 17:47 | 41.08893 | 29.54478 | 18635 ft | 389 kts | 116° |
| 2026-05-05 17:47 | 41.07663 | 29.57670 | 19159 ft | 388 kts | 115° |
| 2026-05-05 17:47 | 41.06432 | 29.60861 | 19684 ft | 388 kts | 115° |
| 2026-05-05 17:48 | 41.05209 | 29.64030 | 20205 ft | 387 kts | 115° |
| 2026-05-05 17:48 | 41.03957 | 29.67274 | 20462 ft | 407 kts | 115° |
| 2026-05-05 17:48 | 41.02651 | 29.70655 | 20714 ft | 415 kts | 115° |
| 2026-05-05 17:48 | 41.01324 | 29.74082 | 21045 ft | 420 kts | 115° |
| 2026-05-05 17:49 | 40.99985 | 29.77533 | 21388 ft | 422 kts | 115° |
| 2026-05-05 17:49 | 40.98658 | 29.80948 | 21726 ft | 423 kts | 115° |
| 2026-05-05 17:49 | 40.97298 | 29.84445 | 22172 ft | 421 kts | 115° |
| 2026-05-05 17:49 | 40.95955 | 29.87894 | 22654 ft | 422 kts | 115° |
| 2026-05-05 17:50 | 40.94606 | 29.91356 | 23140 ft | 425 kts | 115° |
| 2026-05-05 17:50 | 40.93245 | 29.94846 | 23636 ft | 429 kts | 115° |
| 2026-05-05 17:50 | 40.91869 | 29.98370 | 24062 ft | 433 kts | 115° |
| 2026-05-05 17:50 | 40.90496 | 30.01883 | 24482 ft | 437 kts | 115° |
| 2026-05-05 17:51 | 40.89093 | 30.05468 | 24920 ft | 441 kts | 115° |
| 2026-05-05 17:51 | 40.87677 | 30.09082 | 25355 ft | 444 kts | 115° |
| 2026-05-05 17:51 | 40.86247 | 30.12724 | 25812 ft | 447 kts | 115° |
| 2026-05-05 17:51 | 40.84811 | 30.16377 | 26250 ft | 451 kts | 115° |
| 2026-05-05 17:52 | 40.83359 | 30.20070 | 26655 ft | 456 kts | 115° |
| 2026-05-05 17:52 | 40.81890 | 30.23802 | 26956 ft | 461 kts | 115° |
| 2026-05-05 17:52 | 40.80405 | 30.27567 | 27025 ft | 461 kts | 115° |
| 2026-05-05 17:52 | 40.78929 | 30.31302 | 27070 ft | 458 kts | 115° |
| 2026-05-05 17:53 | 40.77455 | 30.35026 | 27076 ft | 457 kts | 115° |
| 2026-05-05 17:53 | 40.75983 | 30.38744 | 27081 ft | 458 kts | 115° |
| 2026-05-05 17:53 | 40.74508 | 30.42466 | 27090 ft | 459 kts | 115° |
| 2026-05-05 17:53 | 40.73024 | 30.46205 | 27087 ft | 460 kts | 115° |
| 2026-05-05 17:54 | 40.71540 | 30.49941 | 27086 ft | 460 kts | 115° |
| 2026-05-05 17:54 | 40.70053 | 30.53680 | 27085 ft | 461 kts | 115° |
| 2026-05-05 17:54 | 40.68563 | 30.57420 | 27084 ft | 461 kts | 115° |
| 2026-05-05 17:54 | 40.67071 | 30.61164 | 27080 ft | 461 kts | 115° |
| 2026-05-05 17:55 | 40.65576 | 30.64908 | 27083 ft | 461 kts | 116° |
| 2026-05-05 17:55 | 40.64096 | 30.68646 | 27082 ft | 460 kts | 114° |
| 2026-05-05 17:55 | 40.62822 | 30.72495 | 27077 ft | 458 kts | 108° |
| 2026-05-05 17:55 | 40.61872 | 30.76482 | 27084 ft | 455 kts | 103° |
| 2026-05-05 17:56 | 40.61057 | 30.80495 | 27097 ft | 454 kts | 102° |
| 2026-05-05 17:56 | 40.60237 | 30.84517 | 27084 ft | 454 kts | 103° |
| 2026-05-05 17:56 | 40.59409 | 30.88528 | 27089 ft | 454 kts | 103° |
| 2026-05-05 17:56 | 40.58570 | 30.92541 | 27088 ft | 454 kts | 103° |
| 2026-05-05 17:57 | 40.57724 | 30.96548 | 27089 ft | 455 kts | 103° |
| 2026-05-05 17:57 | 40.56882 | 31.00506 | 27088 ft | 455 kts | 103° |
| 2026-05-05 17:57 | 40.56027 | 31.04517 | 27091 ft | 456 kts | 103° |
| 2026-05-05 17:57 | 40.55169 | 31.08534 | 27083 ft | 457 kts | 103° |
| 2026-05-05 17:58 | 40.54309 | 31.12555 | 27069 ft | 455 kts | 103° |
| 2026-05-05 17:58 | 40.53454 | 31.16553 | 27070 ft | 451 kts | 103° |
| 2026-05-05 17:58 | 40.52605 | 31.20504 | 27064 ft | 448 kts | 103° |
| 2026-05-05 17:58 | 40.51755 | 31.24458 | 27086 ft | 449 kts | 103° |
| 2026-05-05 17:59 | 40.50905 | 31.28406 | 27083 ft | 450 kts | 103° |
| 2026-05-05 17:59 | 40.50060 | 31.32324 | 27077 ft | 452 kts | 103° |
| 2026-05-05 17:59 | 40.49200 | 31.36302 | 27083 ft | 453 kts | 103° |
| 2026-05-05 17:59 | 40.48339 | 31.40285 | 27072 ft | 454 kts | 103° |
| 2026-05-05 18:00 | 40.47464 | 31.44322 | 27058 ft | 454 kts | 103° |
| 2026-05-05 18:00 | 40.46610 | 31.48253 | 27064 ft | 453 kts | 103° |
| 2026-05-05 18:00 | 40.45746 | 31.52225 | 27066 ft | 453 kts | 103° |
| 2026-05-05 18:00 | 40.44881 | 31.56197 | 27066 ft | 452 kts | 103° |
| 2026-05-05 18:01 | 40.44017 | 31.60162 | 27064 ft | 452 kts | 103° |
| 2026-05-05 18:01 | 40.43152 | 31.64129 | 26969 ft | 453 kts | 103° |
| 2026-05-05 18:01 | 40.42284 | 31.68101 | 26678 ft | 452 kts | 103° |
| 2026-05-05 18:01 | 40.41420 | 31.72048 | 26355 ft | 448 kts | 103° |
| 2026-05-05 18:02 | 40.40563 | 31.75954 | 26057 ft | 443 kts | 103° |
| 2026-05-05 18:02 | 40.39780 | 31.79845 | 25753 ft | 438 kts | 99° |
| 2026-05-05 18:02 | 40.39353 | 31.83786 | 25383 ft | 435 kts | 92° |
| 2026-05-05 18:02 | 40.39277 | 31.87734 | 25035 ft | 431 kts | 85° |
| 2026-05-05 18:03 | 40.39401 | 31.91635 | 24673 ft | 426 kts | 84° |
| 2026-05-05 18:03 | 40.39527 | 31.95496 | 24321 ft | 421 kts | 85° |
| 2026-05-05 18:03 | 40.39647 | 31.99310 | 23971 ft | 417 kts | 85° |
| 2026-05-05 18:03 | 40.39758 | 32.03097 | 23613 ft | 413 kts | 85° |
| 2026-05-05 18:04 | 40.39830 | 32.05629 | 23332 ft | 411 kts | 85° |
| 2026-05-05 18:04 | 40.39930 | 32.09313 | 22919 ft | 408 kts | 85° |
| 2026-05-05 18:04 | 40.40028 | 32.13026 | 22509 ft | 405 kts | 85° |
| 2026-05-05 18:04 | 40.40122 | 32.16699 | 22113 ft | 400 kts | 85° |
| 2026-05-05 18:05 | 40.40212 | 32.20322 | 21711 ft | 394 kts | 85° |
| 2026-05-05 18:05 | 40.40300 | 32.23894 | 21343 ft | 390 kts | 85° |
| 2026-05-05 18:05 | 40.40385 | 32.27437 | 20961 ft | 387 kts | 85° |
| 2026-05-05 18:05 | 40.40470 | 32.30962 | 20552 ft | 385 kts | 84° |
| 2026-05-05 18:06 | 40.40554 | 32.34464 | 20164 ft | 383 kts | 85° |
| 2026-05-05 18:06 | 40.40609 | 32.36771 | 19900 ft | 382 kts | 85° |
| 2026-05-05 18:06 | 40.40717 | 32.41412 | 19369 ft | 379 kts | 85° |
| 2026-05-05 18:06 | 40.40796 | 32.44863 | 18954 ft | 378 kts | 85° |
| 2026-05-05 18:07 | 40.40873 | 32.48310 | 18515 ft | 376 kts | 85° |
| 2026-05-05 18:07 | 40.40948 | 32.51685 | 18065 ft | 373 kts | 85° |
| 2026-05-05 18:07 | 40.41024 | 32.55078 | 17512 ft | 371 kts | 85° |
| 2026-05-05 18:07 | 40.41096 | 32.58396 | 16981 ft | 357 kts | 85° |
| 2026-05-05 18:08 | 40.41162 | 32.61601 | 16456 ft | 345 kts | 86° |
| 2026-05-05 18:08 | 40.41227 | 32.64725 | 15984 ft | 333 kts | 86° |
| 2026-05-05 18:08 | 40.41289 | 32.67686 | 15534 ft | 325 kts | 86° |
| 2026-05-05 18:08 | 40.41351 | 32.70641 | 15071 ft | 324 kts | 86° |
| 2026-05-05 18:09 | 40.41413 | 32.73584 | 14646 ft | 320 kts | 86° |
| 2026-05-05 18:09 | 40.41471 | 32.76484 | 14201 ft | 314 kts | 87° |
| 2026-05-05 18:09 | 40.41528 | 32.79327 | 13760 ft | 309 kts | 87° |
| 2026-05-05 18:09 | 40.41583 | 32.82129 | 13271 ft | 306 kts | 87° |
| 2026-05-05 18:10 | 40.41637 | 32.84916 | 12793 ft | 304 kts | 88° |
| 2026-05-05 18:10 | 40.41689 | 32.87687 | 12275 ft | 304 kts | 88° |
| 2026-05-05 18:10 | 40.41748 | 32.90456 | 11761 ft | 302 kts | 86° |
| 2026-05-05 18:10 | 40.41751 | 32.93205 | 11260 ft | 301 kts | 94° |
| 2026-05-05 18:11 | 40.41559 | 32.95929 | 10829 ft | 298 kts | 96° |
| 2026-05-05 18:11 | 40.41334 | 32.98610 | 10439 ft | 294 kts | 96° |
| 2026-05-05 18:11 | 40.41108 | 33.01274 | 10073 ft | 295 kts | 96° |
| 2026-05-05 18:11 | 40.40875 | 33.03965 | 9710 ft | 298 kts | 96° |
| 2026-05-05 18:12 | 40.40634 | 33.06661 | 9310 ft | 297 kts | 96° |
| 2026-05-05 18:12 | 40.40389 | 33.09354 | 8925 ft | 297 kts | 96° |
| 2026-05-05 18:12 | 40.40113 | 33.12035 | 8524 ft | 293 kts | 102° |
| 2026-05-05 18:12 | 40.39307 | 33.14474 | 8116 ft | 293 kts | 123° |
| 2026-05-05 18:13 | 40.38121 | 33.16618 | 7864 ft | 288 kts | 126° |
| 2026-05-05 18:13 | 40.36801 | 33.18526 | 7570 ft | 281 kts | 144° |
| 2026-05-05 18:13 | 40.35026 | 33.19476 | 7321 ft | 276 kts | 174° |
| 2026-05-05 18:13 | 40.33161 | 33.19196 | 7055 ft | 269 kts | 204° |
| 2026-05-05 18:14 | 40.31610 | 33.17928 | 6804 ft | 260 kts | 220° |
| 2026-05-05 18:14 | 40.30207 | 33.16455 | 6657 ft | 254 kts | 220° |
| 2026-05-05 18:14 | 40.28828 | 33.15064 | 6589 ft | 246 kts | 218° |
| 2026-05-05 18:14 | 40.27497 | 33.13775 | 6488 ft | 239 kts | 218° |
| 2026-05-05 18:15 | 40.26155 | 33.12486 | 6146 ft | 238 kts | 218° |
| 2026-05-05 18:15 | 40.24857 | 33.11236 | 5798 ft | 224 kts | 218° |
| 2026-05-05 18:15 | 40.23627 | 33.10053 | 5499 ft | 207 kts | 218° |
| 2026-05-05 18:15 | 40.22524 | 33.08992 | 5217 ft | 193 kts | 218° |
| 2026-05-05 18:16 | 40.21484 | 33.07992 | 4978 ft | 177 kts | 218° |
| 2026-05-05 18:16 | 40.20524 | 33.07068 | 4729 ft | 168 kts | 218° |
| 2026-05-05 18:16 | 40.19603 | 33.06183 | 4494 ft | 161 kts | 218° |
| 2026-05-05 18:16 | 40.18700 | 33.05316 | 4260 ft | 160 kts | 218° |
| 2026-05-05 18:17 | 40.17812 | 33.04461 | 4012 ft | 157 kts | 218° |
| 2026-05-05 18:17 | 40.16944 | 33.03612 | 3776 ft | 155 kts | 218° |
| 2026-05-05 18:17 | 40.16079 | 33.02790 | 3622 ft | 153 kts | 219° |
| 2026-05-05 18:17 | 40.15205 | 33.01954 | 3434 ft | 157 kts | 219° |
| 2026-05-05 18:18 | 40.14336 | 33.01122 | 3215 ft | 152 kts | 219° |
| 2026-05-05 18:18 | 40.13529 | 33.00345 | 3134 ft | 133 kts | 216° |
| 2026-05-05 18:18 | 40.12877 | 32.99724 | 3125 ft | 98 kts | 217° |
| 2026-05-05 18:18 | 40.12428 | 32.99294 | 3121 ft | 62 kts | 217° |
| 2026-05-05 18:19 | 40.12178 | 32.99051 | 3122 ft | 38 kts | 216° |
| 2026-05-05 18:19 | 40.11985 | 32.98868 | 3120 ft | 19 kts | 216° |
| 2026-05-05 18:19 | 40.11942 | 32.98850 | 3119 ft | 0 kts | 180° |
| 2026-05-05 18:19 | 40.11901 | 32.98877 | 3119 ft | 15 kts | 139° |
| 2026-05-05 18:20 | 40.11818 | 32.99017 | 3118 ft | 18 kts | 126° |
| 2026-05-05 18:20 | 40.11792 | 32.99149 | 3118 ft | 16 kts | 73° |
| 2026-05-05 18:20 | 40.11824 | 32.99283 | 3118 ft | 16 kts | 76° |
| 2026-05-05 18:20 | 40.11798 | 32.99377 | 3118 ft | 11 kts | 128° |
| 2026-05-05 18:21 | 40.11727 | 32.99420 | 3118 ft | 9 kts | 167° |
| 2026-05-05 18:21 | 40.11719 | 32.99422 | 3118 ft | 0 kts | 167° |